• Join FlightAware (Why Join?)
  • Login
  • US Flag 
11:54PM EDT


 

Airport Tracker/Info


-or-


 

Live Flight TrackerFlight Track Log ✈ N302QS ✈ 27-Jul-2013 ✈ KPWM - KMMU

Flight Track Log - Related Links

Times and Time Zones

All times are in EDT time to prevent confusion due to time zone crossing. See the N302QS flight status page for this flight to view local times or setup timezone preferences in your user account.

Time Position Orientation Groundspeed Altitude Reporting Facility
EDT Latitude Longitude Course Direction KTS MPH feet Rate Location/Type
09:02AM 43.6510 -70.4590 274° West 228 262 7,300  Level FlightAware
09:02AM 43.6520 -70.4690 278° West 230 265 7,700 3,300 Climbing FlightAware
09:03AM 43.6550 -70.5160 275° West 245 282 9,400 2,460 Climbing FlightAware
09:04AM 43.6600 -70.5900 275° West 278 320 10,800 2,940 Climbing FlightAware
09:04AM 43.6660 -70.6660 276° West 266 306 13,700 3,480 Climbing FlightAware
09:05AM 43.6620 -70.7340 265° West 269 310 15,700 3,000 Climbing FlightAware
09:06AM 43.6510 -70.8080 258° West 271 312 17,900 2,820 Climbing FlightAware
09:06AM 43.6410 -70.8760 259° West 275 316 19,700 2,520 Climbing FlightAware
09:07AM 43.6300 -70.9480 258° West 283 326 21,400 2,220 Climbing FlightAware
09:08AM 43.6180 -71.0290 258° West 295 339 22,900 1,140 Climbing FlightAware
09:08AM 43.6070 -71.1060 259° West 339 390 23,000 60 Climbing FlightAware
09:09AM 43.5920 -71.2050 258° West 374 430 23,000 240 Level FlightAware
09:10AM 43.5770 -71.3010 258° West 384 442 23,400 720 Climbing FlightAware
09:10AM 43.5620 -71.3960 258° West 385 443 24,000 420 Climbing FlightAware
09:11AM 43.5470 -71.4990 259° West 399 459 24,000  Level FlightAware
09:12AM 43.5340 -71.5800 258° West 405 466 24,000  Level FlightAware
09:13AM 43.5120 -71.7240 258° West 412 474 24,000  Level FlightAware
09:13AM 43.5010 -71.7920 257° West 410 472 24,000  Level FlightAware
09:14AM 43.4820 -71.9150 258° West 394 453 24,000  Level FlightAware
09:15AM 43.4630 -72.0340 258° West 386 444 24,000  Level FlightAware
09:16AM 43.4450 -72.1440 257° West 380 437 24,000  Level FlightAware
09:16AM 43.4270 -72.2520 257° West 379 436 24,000  Level FlightAware
09:17AM 43.4060 -72.3850 258° West 378 435 24,000  Level FlightAware
09:18AM 43.3900 -72.4790 257° West 379 436 24,000  Level FlightAware
09:19AM 43.3750 -72.5720 258° West 381 438 24,000  Level FlightAware
09:19AM 43.3580 -72.6760 257° West 381 438 24,000  Level FlightAware
09:20AM 43.3420 -72.7730 257° West 381 438 24,000  Level FlightAware
09:21AM 43.3240 -72.8800 257° West 381 438 24,000  Level FlightAware
09:21AM 43.3080 -72.9740 257° West 380 437 24,000  Level FlightAware
09:22AM 43.2890 -73.0820 256° West 380 437 24,000  Level FlightAware
09:23AM 43.2700 -73.1980 257° West 379 436 24,000 -120 Level FlightAware
09:24AM 43.2470 -73.3290 256° West 382 440 23,800 -480 Descending FlightAware
09:25AM 43.2270 -73.4500 257° West 397 457 23,200 -1,560 Descending FlightAware
09:25AM 43.2060 -73.5490 254° West 397 457 21,500 -1,380 Descending FlightAware
09:26AM 43.1770 -73.6240 242° Southwest 399 459 21,400 -120 Descending FlightAware
09:27AM 43.1510 -73.6950 243° Southwest 399 459 21,400  Level FlightAware
09:27AM 43.1250 -73.7640 243° Southwest 399 459 21,400  Level FlightAware
09:28AM 43.0910 -73.8560 243° Southwest 399 459 21,400  Level FlightAware
09:29AM 43.0660 -73.9250 244° Southwest 399 459 21,400 -4,680 Level FlightAware
09:29AM 42.8072 -73.7814 244° Southwest 396 456 15,300 -4,320 Descending Boston Center
09:31AM 42.7086 -73.8358 202° Southwest 396 456 14,000 -660 Descending Boston Center
09:32AM 42.6222 -73.9017 209° Southwest 377 434 14,000  Level Boston Center
09:32AM 42.5297 -73.9672 208° Southwest 370 426 14,000  Level Boston Center
09:33AM 42.4414 -74.0325 209° Southwest 370 426 14,000  Level Boston Center
09:35AM 42.3528 -74.0978 209° Southwest 370 426 14,000  Level Boston Center
09:36AM 42.2728 -74.1572 209° Southwest 370 426 14,000  Level Boston Center
09:36AM 42.1758 -74.2275 208° Southwest 370 426 14,000  Level Boston Center
09:37AM 42.0978 -74.2867 209° Southwest 370 426 14,000 -300 Level Boston Center
09:38AM 41.9986 -74.3564 208° Southwest 370 426 13,500 -840 Descending Boston Center
09:39AM 41.9206 -74.4128 208° Southwest 370 426 12,400 -1,200 Descending Boston Center
09:40AM 41.8233 -74.4822 208° Southwest 365 420 11,100 -1,200 Descending Boston Center
09:42AM 41.7497 -74.5272 205° Southwest 345 397 10,000 -1,200 Descending Boston Center
09:43AM 41.6639 -74.5436 188° South 297 342 8,800 -1,020 Descending Boston Center
09:43AM 41.5969 -74.5581 189° South 291 335 8,000 -600 Descending Boston Center
09:44AM 41.5133 -74.5719 187° South 281 323 7,700 -660 Descending Boston Center
09:50AM 41.1390 -74.5040 187° South 213 245 3,900 -660 Descending FlightAware
09:51AM 41.1190 -74.4850 144° Southeast 213 245 3,900 -780 Level FlightAware
09:51AM 41.0759 -74.4460 146° Southeast 198 228 2,900 -900 Descending FlightAware ADS-B
09:52AM 41.0614 -74.4322 144° Southeast 207 238 2,900  Level FlightAware ADS-B
09:52AM 41.0493 -74.4208 145° Southeast 212 244 2,900  Level FlightAware ADS-B
09:52AM 41.0357 -74.4080 145° Southeast 215 247 2,900  Level FlightAware ADS-B
09:53AM 41.0181 -74.3915 145° Southeast 214 246 2,900  Level FlightAware ADS-B
09:53AM 41.0053 -74.3796 145° Southeast 207 238 2,900 -600 Level FlightAware ADS-B
09:53AM 40.9852 -74.3609 145° Southeast 207 238 2,500 -1,020 Descending FlightAware ADS-B
09:54AM 40.9639 -74.3411 145° Southeast 201 231 2,000 -840 Descending FlightAware ADS-B
09:54AM 40.9521 -74.3299 144° Southeast 181 208 1,900 -120 Descending FlightAware ADS-B
09:56AM 40.8740 -74.3410 186° South 163 188 1,800 -60 Descending FlightAware
09:56AM 40.8610 -74.3540 217° Southwest 163 188 1,800 -540 Level FlightAware
09:57AM 40.8333 -74.3833 217° Southwest 120 138 1,100 -840 Descending New York TRACON
09:59AM 40.7993 -74.4149 180° South  Level Estimated
10:06AM 40.7993 -74.4149 180° South  Level Estimated
10:07AM 40.7993 -74.4149 180° South  Level Estimated